sensor_id;sensor_type;location;lat;lon;timestamp;temperature;humidity
15630;DHT22;7914;50.842;0.166;2023-02-28T00:01:20;5.20;99.90
15630;DHT22;7914;50.842;0.166;2023-02-28T00:03:46;5.50;99.90
15630;DHT22;7914;50.842;0.166;2023-02-28T00:06:12;5.10;99.90
15630;DHT22;7914;50.842;0.166;2023-02-28T00:08:38;6.90;99.90
15630;DHT22;7914;50.842;0.166;2023-02-28T00:11:05;5.20;1.00
15630;DHT22;7914;50.842;0.166;2023-02-28T00:13:34;6.40;1.00
15630;DHT22;7914;50.842;0.166;2023-02-28T00:16:02;5.10;1.00
15630;DHT22;7914;50.842;0.166;2023-02-28T00:18:27;5.10;1.00
15630;DHT22;7914;50.842;0.166;2023-02-28T00:20:53;6.40;1.00
15630;DHT22;7914;50.842;0.166;2023-02-28T00:23:19;5.10;1.00
15630;DHT22;7914;50.842;0.166;2023-02-28T00:25:44;5.00;1.00
15630;DHT22;7914;50.842;0.166;2023-02-28T00:28:10;6.20;1.00
15630;DHT22;7914;50.842;0.166;2023-02-28T00:30:36;5.10;1.00
15630;DHT22;7914;50.842;0.166;2023-02-28T00:33:01;5.10;1.00
15630;DHT22;7914;50.842;0.166;2023-02-28T00:35:27;5.10;97.70
15630;DHT22;7914;50.842;0.166;2023-02-28T00:37:53;5.40;99.90
15630;DHT22;7914;50.842;0.166;2023-02-28T00:40:18;5.30;99.90
15630;DHT22;7914;50.842;0.166;2023-02-28T00:42:44;7.10;99.90
15630;DHT22;7914;50.842;0.166;2023-02-28T00:45:10;5.20;99.90
15630;DHT22;7914;50.842;0.166;2023-02-28T00:47:35;5.20;99.90
15630;DHT22;7914;50.842;0.166;2023-02-28T00:50:01;6.10;99.90
15630;DHT22;7914;50.842;0.166;2023-02-28T00:52:27;5.10;99.90
15630;DHT22;7914;50.842;0.166;2023-02-28T00:54:53;7.00;99.90
15630;DHT22;7914;50.842;0.166;2023-02-28T00:57:19;6.80;1.00
15630;DHT22;7914;50.842;0.166;2023-02-28T00:59:44;5.10;1.00
15630;DHT22;7914;50.842;0.166;2023-02-28T01:02:10;5.10;1.00
15630;DHT22;7914;50.842;0.166;2023-02-28T01:04:36;5.50;1.00
15630;DHT22;7914;50.842;0.166;2023-02-28T01:07:01;6.20;1.00
15630;DHT22;7914;50.842;0.166;2023-02-28T01:09:27;5.10;1.00
15630;DHT22;7914;50.842;0.166;2023-02-28T01:11:52;5.10;1.00
15630;DHT22;7914;50.842;0.166;2023-02-28T01:14:18;5.10;1.00
15630;DHT22;7914;50.842;0.166;2023-02-28T01:16:44;5.10;34.30
15630;DHT22;7914;50.842;0.166;2023-02-28T01:19:10;5.00;34.40
15630;DHT22;7914;50.842;0.166;2023-02-28T01:21:36;5.60;99.90
15630;DHT22;7914;50.842;0.166;2023-02-28T01:24:03;5.10;94.40
15630;DHT22;7914;50.842;0.166;2023-02-28T01:26:30;5.00;99.90
15630;DHT22;7914;50.842;0.166;2023-02-28T01:28:56;5.00;99.90
15630;DHT22;7914;50.842;0.166;2023-02-28T01:31:22;7.10;97.60
15630;DHT22;7914;50.842;0.166;2023-02-28T01:33:48;5.10;65.40
15630;DHT22;7914;50.842;0.166;2023-02-28T01:36:19;5.10;89.40
15630;DHT22;7914;50.842;0.166;2023-02-28T01:38:45;5.10;95.60
15630;DHT22;7914;50.842;0.166;2023-02-28T01:41:21;5.10;99.90
15630;DHT22;7914;50.842;0.166;2023-02-28T01:46:13;5.00;99.90
15630;DHT22;7914;50.842;0.166;2023-02-28T01:48:50;5.00;99.90
15630;DHT22;7914;50.842;0.166;2023-02-28T01:51:23;4.70;99.90
15630;DHT22;7914;50.842;0.166;2023-02-28T01:53:56;4.70;1.00
15630;DHT22;7914;50.842;0.166;2023-02-28T01:56:29;4.60;99.90
15630;DHT22;7914;50.842;0.166;2023-02-28T01:58:56;4.50;99.90
15630;DHT22;7914;50.842;0.166;2023-02-28T02:01:23;6.00;1.00
15630;DHT22;7914;50.842;0.166;2023-02-28T02:03:53;4.40;1.00
15630;DHT22;7914;50.842;0.166;2023-02-28T02:06:26;6.40;1.00
15630;DHT22;7914;50.842;0.166;2023-02-28T02:08:53;4.40;1.00
15630;DHT22;7914;50.842;0.166;2023-02-28T02:11:20;4.40;1.00
15630;DHT22;7914;50.842;0.166;2023-02-28T02:27:26;4.50;99.90
15630;DHT22;7914;50.842;0.166;2023-02-28T02:35:28;4.20;1.00
15630;DHT22;7914;50.842;0.166;2023-02-28T02:43:29;4.20;1.00
15630;DHT22;7914;50.842;0.166;2023-02-28T02:46:02;4.30;1.00
15630;DHT22;7914;50.842;0.166;2023-02-28T02:48:33;4.20;1.00
15630;DHT22;7914;50.842;0.166;2023-02-28T02:51:03;4.20;1.00
15630;DHT22;7914;50.842;0.166;2023-02-28T02:53:54;4.20;11.20
15630;DHT22;7914;50.842;0.166;2023-02-28T02:56:28;4.30;30.00
15630;DHT22;7914;50.842;0.166;2023-02-28T02:59:00;4.20;1.00
15630;DHT22;7914;50.842;0.166;2023-02-28T03:01:28;6.00;99.90
15630;DHT22;7914;50.842;0.166;2023-02-28T03:04:09;4.30;99.90
15630;DHT22;7914;50.842;0.166;2023-02-28T03:06:36;4.20;99.90
15630;DHT22;7914;50.842;0.166;2023-02-28T03:09:02;4.20;99.90
15630;DHT22;7914;50.842;0.166;2023-02-28T03:11:30;4.10;1.00
15630;DHT22;7914;50.842;0.166;2023-02-28T03:14:22;4.10;1.00
15630;DHT22;7914;50.842;0.166;2023-02-28T03:30:49;3.90;99.90
15630;DHT22;7914;50.842;0.166;2023-02-28T03:33:44;3.80;1.00
15630;DHT22;7914;50.842;0.166;2023-02-28T03:36:25;3.80;1.00
15630;DHT22;7914;50.842;0.166;2023-02-28T03:39:02;4.40;1.00
15630;DHT22;7914;50.842;0.166;2023-02-28T03:41:36;3.60;1.00
15630;DHT22;7914;50.842;0.166;2023-02-28T03:44:16;3.60;1.00
15630;DHT22;7914;50.842;0.166;2023-02-28T03:47:12;3.50;99.90
15630;DHT22;7914;50.842;0.166;2023-02-28T03:49:48;3.50;1.00
15630;DHT22;7914;50.842;0.166;2023-02-28T03:52:16;3.60;1.00
15630;DHT22;7914;50.842;0.166;2023-02-28T03:54:51;3.60;1.00
15630;DHT22;7914;50.842;0.166;2023-02-28T03:57:51;5.50;1.00
15630;DHT22;7914;50.842;0.166;2023-02-28T04:00:21;3.60;1.00
15630;DHT22;7914;50.842;0.166;2023-02-28T04:02:50;3.70;1.00
15630;DHT22;7914;50.842;0.166;2023-02-28T04:05:19;5.90;1.00
15630;DHT22;7914;50.842;0.166;2023-02-28T04:07:45;3.70;1.00
15630;DHT22;7914;50.842;0.166;2023-02-28T04:10:11;3.70;1.00
15630;DHT22;7914;50.842;0.166;2023-02-28T04:12:38;3.70;1.00
15630;DHT22;7914;50.842;0.166;2023-02-28T04:15:04;3.80;1.00
15630;DHT22;7914;50.842;0.166;2023-02-28T04:17:30;3.80;1.00
15630;DHT22;7914;50.842;0.166;2023-02-28T04:19:56;3.80;1.00
15630;DHT22;7914;50.842;0.166;2023-02-28T04:22:23;3.70;99.90
15630;DHT22;7914;50.842;0.166;2023-02-28T04:24:51;5.70;99.90
15630;DHT22;7914;50.842;0.166;2023-02-28T04:27:19;4.30;99.90
15630;DHT22;7914;50.842;0.166;2023-02-28T04:29:45;4.00;29.20
15630;DHT22;7914;50.842;0.166;2023-02-28T04:32:11;4.20;25.70
15630;DHT22;7914;50.842;0.166;2023-02-28T04:34:36;4.10;1.00
15630;DHT22;7914;50.842;0.166;2023-02-28T04:37:02;4.10;1.00
15630;DHT22;7914;50.842;0.166;2023-02-28T04:39:28;4.20;1.00
15630;DHT22;7914;50.842;0.166;2023-02-28T04:41:55;4.60;1.00
15630;DHT22;7914;50.842;0.166;2023-02-28T04:44:21;4.90;1.00
15630;DHT22;7914;50.842;0.166;2023-02-28T04:46:48;4.20;1.00
15630;DHT22;7914;50.842;0.166;2023-02-28T04:49:14;4.20;1.00
15630;DHT22;7914;50.842;0.166;2023-02-28T04:51:40;4.30;1.00
15630;DHT22;7914;50.842;0.166;2023-02-28T04:54:06;4.30;1.00
15630;DHT22;7914;50.842;0.166;2023-02-28T04:56:32;4.50;1.00
15630;DHT22;7914;50.842;0.166;2023-02-28T04:58:58;5.00;1.00
15630;DHT22;7914;50.842;0.166;2023-02-28T05:01:29;5.00;1.00
15630;DHT22;7914;50.842;0.166;2023-02-28T05:03:57;4.20;1.00
15630;DHT22;7914;50.842;0.166;2023-02-28T05:06:25;4.30;2.40
15630;DHT22;7914;50.842;0.166;2023-02-28T05:08:52;4.20;5.80
15630;DHT22;7914;50.842;0.166;2023-02-28T05:11:20;4.10;55.80
15630;DHT22;7914;50.842;0.166;2023-02-28T05:13:47;4.20;86.60
15630;DHT22;7914;50.842;0.166;2023-02-28T05:16:13;4.20;96.10
15630;DHT22;7914;50.842;0.166;2023-02-28T05:18:39;4.10;18.40
15630;DHT22;7914;50.842;0.166;2023-02-28T05:21:05;4.20;53.50
15630;DHT22;7914;50.842;0.166;2023-02-28T05:23:31;4.20;1.00
15630;DHT22;7914;50.842;0.166;2023-02-28T05:25:57;5.70;1.00
15630;DHT22;7914;50.842;0.166;2023-02-28T05:28:23;4.10;34.00
15630;DHT22;7914;50.842;0.166;2023-02-28T05:30:49;4.10;41.50
15630;DHT22;7914;50.842;0.166;2023-02-28T05:33:14;4.00;99.90
15630;DHT22;7914;50.842;0.166;2023-02-28T05:35:41;3.90;99.90
15630;DHT22;7914;50.842;0.166;2023-02-28T05:38:08;3.90;99.90
15630;DHT22;7914;50.842;0.166;2023-02-28T05:40:34;3.90;99.90
15630;DHT22;7914;50.842;0.166;2023-02-28T05:43:00;3.90;99.90
15630;DHT22;7914;50.842;0.166;2023-02-28T05:45:25;4.30;99.90
15630;DHT22;7914;50.842;0.166;2023-02-28T05:47:55;5.90;99.90
15630;DHT22;7914;50.842;0.166;2023-02-28T05:50:21;4.00;99.90
15630;DHT22;7914;50.842;0.166;2023-02-28T05:52:53;4.00;99.90
15630;DHT22;7914;50.842;0.166;2023-02-28T05:55:18;4.00;99.90
15630;DHT22;7914;50.842;0.166;2023-02-28T05:57:44;4.10;99.90
15630;DHT22;7914;50.842;0.166;2023-02-28T06:00:11;4.00;99.90
15630;DHT22;7914;50.842;0.166;2023-02-28T06:02:38;4.00;99.90
15630;DHT22;7914;50.842;0.166;2023-02-28T06:05:07;4.00;99.90
15630;DHT22;7914;50.842;0.166;2023-02-28T06:07:34;4.10;99.90
15630;DHT22;7914;50.842;0.166;2023-02-28T06:10:00;4.80;99.90
15630;DHT22;7914;50.842;0.166;2023-02-28T06:12:25;6.30;99.90
15630;DHT22;7914;50.842;0.166;2023-02-28T06:14:51;4.00;1.00
15630;DHT22;7914;50.842;0.166;2023-02-28T06:17:17;4.00;1.00
15630;DHT22;7914;50.842;0.166;2023-02-28T06:19:43;5.50;1.00
15630;DHT22;7914;50.842;0.166;2023-02-28T06:22:08;4.00;1.00
15630;DHT22;7914;50.842;0.166;2023-02-28T06:24:34;5.50;1.00
15630;DHT22;7914;50.842;0.166;2023-02-28T06:27:00;3.90;1.00
15630;DHT22;7914;50.842;0.166;2023-02-28T06:29:35;4.00;1.00
15630;DHT22;7914;50.842;0.166;2023-02-28T06:32:02;4.00;1.00
15630;DHT22;7914;50.842;0.166;2023-02-28T06:34:28;4.00;1.00
15630;DHT22;7914;50.842;0.166;2023-02-28T06:36:53;4.00;1.00
15630;DHT22;7914;50.842;0.166;2023-02-28T06:39:19;4.00;1.00
15630;DHT22;7914;50.842;0.166;2023-02-28T06:41:45;4.00;1.00
15630;DHT22;7914;50.842;0.166;2023-02-28T06:44:15;4.10;1.00
15630;DHT22;7914;50.842;0.166;2023-02-28T06:46:43;4.20;1.00
15630;DHT22;7914;50.842;0.166;2023-02-28T06:49:09;4.10;1.00
15630;DHT22;7914;50.842;0.166;2023-02-28T06:51:39;4.00;1.00
15630;DHT22;7914;50.842;0.166;2023-02-28T06:54:05;4.00;1.00
15630;DHT22;7914;50.842;0.166;2023-02-28T06:56:34;4.20;1.00
15630;DHT22;7914;50.842;0.166;2023-02-28T06:59:00;4.70;1.00
15630;DHT22;7914;50.842;0.166;2023-02-28T07:01:26;4.90;1.00
15630;DHT22;7914;50.842;0.166;2023-02-28T07:03:54;4.10;1.00
15630;DHT22;7914;50.842;0.166;2023-02-28T07:06:23;5.80;1.00
15630;DHT22;7914;50.842;0.166;2023-02-28T07:08:50;4.10;1.00
15630;DHT22;7914;50.842;0.166;2023-02-28T07:11:17;4.20;1.00
15630;DHT22;7914;50.842;0.166;2023-02-28T07:13:43;4.90;1.00
15630;DHT22;7914;50.842;0.166;2023-02-28T07:16:10;4.20;1.00
15630;DHT22;7914;50.842;0.166;2023-02-28T07:18:37;4.30;1.00
15630;DHT22;7914;50.842;0.166;2023-02-28T07:21:05;4.20;1.00
15630;DHT22;7914;50.842;0.166;2023-02-28T07:23:32;4.30;1.00
15630;DHT22;7914;50.842;0.166;2023-02-28T07:25:58;4.50;1.00
15630;DHT22;7914;50.842;0.166;2023-02-28T07:28:24;4.30;1.00
15630;DHT22;7914;50.842;0.166;2023-02-28T07:33:15;4.40;99.90
15630;DHT22;7914;50.842;0.166;2023-02-28T07:35:41;5.00;99.90
15630;DHT22;7914;50.842;0.166;2023-02-28T07:38:08;4.70;99.90
15630;DHT22;7914;50.842;0.166;2023-02-28T07:40:35;4.40;99.90
15630;DHT22;7914;50.842;0.166;2023-02-28T07:43:01;4.40;99.90
15630;DHT22;7914;50.842;0.166;2023-02-28T07:45:29;6.20;99.90
15630;DHT22;7914;50.842;0.166;2023-02-28T07:47:55;4.50;99.90
15630;DHT22;7914;50.842;0.166;2023-02-28T07:50:21;4.70;99.90
15630;DHT22;7914;50.842;0.166;2023-02-28T07:52:47;4.60;99.90
15630;DHT22;7914;50.842;0.166;2023-02-28T07:55:13;4.80;99.90
15630;DHT22;7914;50.842;0.166;2023-02-28T07:57:40;4.70;28.20
15630;DHT22;7914;50.842;0.166;2023-02-28T08:00:08;4.80;1.00
15630;DHT22;7914;50.842;0.166;2023-02-28T08:02:35;4.80;1.00
15630;DHT22;7914;50.842;0.166;2023-02-28T08:07:27;4.90;99.90
15630;DHT22;7914;50.842;0.166;2023-02-28T08:09:53;5.00;99.90
15630;DHT22;7914;50.842;0.166;2023-02-28T08:12:18;6.30;99.90
15630;DHT22;7914;50.842;0.166;2023-02-28T08:14:44;5.80;49.20
15630;DHT22;7914;50.842;0.166;2023-02-28T08:17:11;6.10;99.90
15630;DHT22;7914;50.842;0.166;2023-02-28T08:19:37;5.20;1.00
15630;DHT22;7914;50.842;0.166;2023-02-28T08:22:02;6.30;1.00
15630;DHT22;7914;50.842;0.166;2023-02-28T08:24:28;5.90;1.00
15630;DHT22;7914;50.842;0.166;2023-02-28T08:26:55;8.00;1.00
15630;DHT22;7914;50.842;0.166;2023-02-28T08:29:21;5.40;99.90
15630;DHT22;7914;50.842;0.166;2023-02-28T08:31:46;7.40;99.90
15630;DHT22;7914;50.842;0.166;2023-02-28T08:34:14;5.40;99.90
15630;DHT22;7914;50.842;0.166;2023-02-28T08:36:41;5.50;53.00
15630;DHT22;7914;50.842;0.166;2023-02-28T08:39:07;6.40;1.00
15630;DHT22;7914;50.842;0.166;2023-02-28T08:41:33;5.60;1.00
15630;DHT22;7914;50.842;0.166;2023-02-28T08:43:59;5.50;99.90
15630;DHT22;7914;50.842;0.166;2023-02-28T08:46:26;5.60;61.30
15630;DHT22;7914;50.842;0.166;2023-02-28T08:48:56;5.60;52.50
15630;DHT22;7914;50.842;0.166;2023-02-28T08:51:26;5.60;99.90
15630;DHT22;7914;50.842;0.166;2023-02-28T08:53:58;5.60;99.90
15630;DHT22;7914;50.842;0.166;2023-02-28T08:56:26;5.60;99.90
15630;DHT22;7914;50.842;0.166;2023-02-28T08:58:54;5.40;1.00
15630;DHT22;7914;50.842;0.166;2023-02-28T09:01:23;5.50;1.00
15630;DHT22;7914;50.842;0.166;2023-02-28T09:03:50;5.70;99.90
15630;DHT22;7914;50.842;0.166;2023-02-28T09:06:19;6.00;1.00
15630;DHT22;7914;50.842;0.166;2023-02-28T09:08:45;7.50;99.90
15630;DHT22;7914;50.842;0.166;2023-02-28T09:11:11;6.00;1.00
15630;DHT22;7914;50.842;0.166;2023-02-28T09:13:37;6.20;1.00
15630;DHT22;7914;50.842;0.166;2023-02-28T09:16:04;6.90;1.00
15630;DHT22;7914;50.842;0.166;2023-02-28T09:18:30;6.00;1.00
15630;DHT22;7914;50.842;0.166;2023-02-28T09:20:57;6.00;99.90
15630;DHT22;7914;50.842;0.166;2023-02-28T09:23:23;6.50;1.00
15630;DHT22;7914;50.842;0.166;2023-02-28T09:25:54;6.60;1.00
15630;DHT22;7914;50.842;0.166;2023-02-28T09:28:20;7.80;1.00
15630;DHT22;7914;50.842;0.166;2023-02-28T09:30:52;6.50;1.00
15630;DHT22;7914;50.842;0.166;2023-02-28T09:33:18;7.70;99.90
15630;DHT22;7914;50.842;0.166;2023-02-28T09:35:47;6.00;1.00
15630;DHT22;7914;50.842;0.166;2023-02-28T09:38:13;6.00;99.90
15630;DHT22;7914;50.842;0.166;2023-02-28T09:40:47;6.10;1.00
15630;DHT22;7914;50.842;0.166;2023-02-28T09:43:15;6.80;1.00
15630;DHT22;7914;50.842;0.166;2023-02-28T09:46:12;7.70;1.00
15630;DHT22;7914;50.842;0.166;2023-02-28T09:48:37;6.70;1.00
15630;DHT22;7914;50.842;0.166;2023-02-28T09:51:14;6.70;1.00
15630;DHT22;7914;50.842;0.166;2023-02-28T09:53:41;6.80;1.00
15630;DHT22;7914;50.842;0.166;2023-02-28T09:56:15;6.80;1.00
15630;DHT22;7914;50.842;0.166;2023-02-28T09:58:51;6.80;1.00
15630;DHT22;7914;50.842;0.166;2023-02-28T10:04:33;6.80;1.00
15630;DHT22;7914;50.842;0.166;2023-02-28T10:07:10;6.90;99.90
15630;DHT22;7914;50.842;0.166;2023-02-28T10:09:43;6.50;1.00
15630;DHT22;7914;50.842;0.166;2023-02-28T10:12:11;6.70;1.00
15630;DHT22;7914;50.842;0.166;2023-02-28T10:14:39;6.80;1.00
15630;DHT22;7914;50.842;0.166;2023-02-28T10:17:37;7.90;1.00
15630;DHT22;7914;50.842;0.166;2023-02-28T10:20:14;6.80;99.90
15630;DHT22;7914;50.842;0.166;2023-02-28T10:22:58;6.90;1.00
15630;DHT22;7914;50.842;0.166;2023-02-28T10:25:28;7.10;99.90
15630;DHT22;7914;50.842;0.166;2023-02-28T10:28:20;7.20;99.90
15630;DHT22;7914;50.842;0.166;2023-02-28T10:30:48;7.10;99.90
15630;DHT22;7914;50.842;0.166;2023-02-28T10:33:28;7.20;99.90
15630;DHT22;7914;50.842;0.166;2023-02-28T10:35:55;7.50;1.00
15630;DHT22;7914;50.842;0.166;2023-02-28T10:38:26;7.80;1.00
15630;DHT22;7914;50.842;0.166;2023-02-28T10:44:22;8.20;1.00
15630;DHT22;7914;50.842;0.166;2023-02-28T10:46:49;8.50;1.00
15630;DHT22;7914;50.842;0.166;2023-02-28T10:49:28;9.00;38.60
15630;DHT22;7914;50.842;0.166;2023-02-28T10:51:59;7.70;83.80
15630;DHT22;7914;50.842;0.166;2023-02-28T10:54:35;7.30;99.90
15630;DHT22;7914;50.842;0.166;2023-02-28T10:57:18;8.30;99.90
15630;DHT22;7914;50.842;0.166;2023-02-28T10:59:45;7.10;99.90
15630;DHT22;7914;50.842;0.166;2023-02-28T11:02:35;7.30;99.90
15630;DHT22;7914;50.842;0.166;2023-02-28T11:05:20;7.20;99.90
15630;DHT22;7914;50.842;0.166;2023-02-28T11:07:55;7.30;99.90
15630;DHT22;7914;50.842;0.166;2023-02-28T11:10:25;7.50;99.90
15630;DHT22;7914;50.842;0.166;2023-02-28T11:12:55;7.60;99.90
15630;DHT22;7914;50.842;0.166;2023-02-28T11:15:24;7.80;99.90
15630;DHT22;7914;50.842;0.166;2023-02-28T11:20:23;8.00;99.90
15630;DHT22;7914;50.842;0.166;2023-02-28T11:22:50;7.80;99.90
15630;DHT22;7914;50.842;0.166;2023-02-28T11:25:25;7.70;99.90
15630;DHT22;7914;50.842;0.166;2023-02-28T11:28:03;8.80;99.90
15630;DHT22;7914;50.842;0.166;2023-02-28T11:30:38;7.80;99.90
15630;DHT22;7914;50.842;0.166;2023-02-28T11:34:10;8.50;99.90
15630;DHT22;7914;50.842;0.166;2023-02-28T11:36:22;8.00;99.90
15630;DHT22;7914;50.842;0.166;2023-02-28T11:38:53;7.80;99.90
15630;DHT22;7914;50.842;0.166;2023-02-28T11:41:59;7.90;99.90
15630;DHT22;7914;50.842;0.166;2023-02-28T11:47:32;8.10;99.90
15630;DHT22;7914;50.842;0.166;2023-02-28T11:50:42;8.00;99.90
15630;DHT22;7914;50.842;0.166;2023-02-28T11:52:56;8.00;99.90
15630;DHT22;7914;50.842;0.166;2023-02-28T11:58:04;8.00;99.90
15630;DHT22;7914;50.842;0.166;2023-02-28T12:06:52;8.00;99.90
15630;DHT22;7914;50.842;0.166;2023-02-28T12:09:44;7.90;99.90
15630;DHT22;7914;50.842;0.166;2023-02-28T12:15:37;7.80;99.90
15630;DHT22;7914;50.842;0.166;2023-02-28T12:18:27;7.80;99.90
15630;DHT22;7914;50.842;0.166;2023-02-28T12:21:29;7.60;99.90
15630;DHT22;7914;50.842;0.166;2023-02-28T12:26:43;7.80;99.90
15630;DHT22;7914;50.842;0.166;2023-02-28T12:29:15;7.90;99.90
15630;DHT22;7914;50.842;0.166;2023-02-28T12:34:20;8.00;99.90
15630;DHT22;7914;50.842;0.166;2023-02-28T12:36:47;7.90;99.90
15630;DHT22;7914;50.842;0.166;2023-02-28T12:39:29;7.90;99.90
15630;DHT22;7914;50.842;0.166;2023-02-28T12:42:08;7.90;99.90
15630;DHT22;7914;50.842;0.166;2023-02-28T12:44:49;7.90;99.90
15630;DHT22;7914;50.842;0.166;2023-02-28T12:47:18;8.00;99.90
15630;DHT22;7914;50.842;0.166;2023-02-28T12:50:06;9.60;99.90
15630;DHT22;7914;50.842;0.166;2023-02-28T13:09:18;7.70;99.90
15630;DHT22;7914;50.842;0.166;2023-02-28T13:11:45;7.80;99.90
15630;DHT22;7914;50.842;0.166;2023-02-28T13:19:46;7.80;99.90
15630;DHT22;7914;50.842;0.166;2023-02-28T13:27:53;7.70;1.00
15630;DHT22;7914;50.842;0.166;2023-02-28T13:33:30;7.40;1.00
15630;DHT22;7914;50.842;0.166;2023-02-28T13:36:24;7.40;1.00
15630;DHT22;7914;50.842;0.166;2023-02-28T13:38:51;7.30;54.30
15630;DHT22;7914;50.842;0.166;2023-02-28T13:44:13;7.30;99.90
15630;DHT22;7914;50.842;0.166;2023-02-28T13:49:29;7.10;1.00
15630;DHT22;7914;50.842;0.166;2023-02-28T14:05:32;7.20;1.00
15630;DHT22;7914;50.842;0.166;2023-02-28T14:08:24;7.30;1.00
15630;DHT22;7914;50.842;0.166;2023-02-28T14:11:02;7.20;1.00
15630;DHT22;7914;50.842;0.166;2023-02-28T14:13:43;7.30;1.00
15630;DHT22;7914;50.842;0.166;2023-02-28T14:16:11;7.50;1.00
15630;DHT22;7914;50.842;0.166;2023-02-28T14:18:42;7.40;1.00
15630;DHT22;7914;50.842;0.166;2023-02-28T14:26:56;7.70;99.90
15630;DHT22;7914;50.842;0.166;2023-02-28T14:38:17;8.00;32.20
15630;DHT22;7914;50.842;0.166;2023-02-28T14:40:45;8.00;1.00
15630;DHT22;7914;50.842;0.166;2023-02-28T14:43:47;7.90;1.00
15630;DHT22;7914;50.842;0.166;2023-02-28T14:46:14;7.80;1.00
15630;DHT22;7914;50.842;0.166;2023-02-28T14:48:40;7.80;1.00
15630;DHT22;7914;50.842;0.166;2023-02-28T14:53:36;7.80;1.00
15630;DHT22;7914;50.842;0.166;2023-02-28T14:56:03;7.80;1.00
15630;DHT22;7914;50.842;0.166;2023-02-28T14:58:31;7.80;1.00
15630;DHT22;7914;50.842;0.166;2023-02-28T15:01:02;7.70;1.00
15630;DHT22;7914;50.842;0.166;2023-02-28T15:03:36;7.80;1.00
15630;DHT22;7914;50.842;0.166;2023-02-28T15:06:05;7.80;1.00
15630;DHT22;7914;50.842;0.166;2023-02-28T15:08:32;7.80;1.00
15630;DHT22;7914;50.842;0.166;2023-02-28T15:11:08;7.90;1.00
15630;DHT22;7914;50.842;0.166;2023-02-28T15:16:24;8.20;1.00
15630;DHT22;7914;50.842;0.166;2023-02-28T15:18:57;7.80;1.00
15630;DHT22;7914;50.842;0.166;2023-02-28T15:21:40;7.50;64.10
15630;DHT22;7914;50.842;0.166;2023-02-28T15:26:42;7.60;99.90
15630;DHT22;7914;50.842;0.166;2023-02-28T15:29:17;7.60;1.00
15630;DHT22;7914;50.842;0.166;2023-02-28T15:31:46;7.50;99.90
15630;DHT22;7914;50.842;0.166;2023-02-28T15:34:25;7.60;99.90
15630;DHT22;7914;50.842;0.166;2023-02-28T15:36:52;7.40;99.90
15630;DHT22;7914;50.842;0.166;2023-02-28T15:39:23;7.40;99.90
15630;DHT22;7914;50.842;0.166;2023-02-28T15:41:49;7.20;1.00
15630;DHT22;7914;50.842;0.166;2023-02-28T15:44:25;7.20;99.90
15630;DHT22;7914;50.842;0.166;2023-02-28T15:47:05;7.00;1.00
15630;DHT22;7914;50.842;0.166;2023-02-28T15:49:40;7.10;1.00
15630;DHT22;7914;50.842;0.166;2023-02-28T15:52:05;7.10;99.90
15630;DHT22;7914;50.842;0.166;2023-02-28T15:54:35;9.10;1.00
15630;DHT22;7914;50.842;0.166;2023-02-28T15:57:22;7.20;1.00
15630;DHT22;7914;50.842;0.166;2023-02-28T15:59:52;7.10;1.00
15630;DHT22;7914;50.842;0.166;2023-02-28T16:02:22;8.50;99.90
15630;DHT22;7914;50.842;0.166;2023-02-28T16:04:59;7.20;1.00
15630;DHT22;7914;50.842;0.166;2023-02-28T16:07:26;7.70;1.00
15630;DHT22;7914;50.842;0.166;2023-02-28T16:09:52;7.10;1.00
15630;DHT22;7914;50.842;0.166;2023-02-28T16:12:26;7.20;99.90
15630;DHT22;7914;50.842;0.166;2023-02-28T16:14:53;8.00;99.90
15630;DHT22;7914;50.842;0.166;2023-02-28T16:17:25;6.30;1.00
15630;DHT22;7914;50.842;0.166;2023-02-28T16:19:51;7.10;65.60
15630;DHT22;7914;50.842;0.166;2023-02-28T16:22:17;7.10;1.00
15630;DHT22;7914;50.842;0.166;2023-02-28T16:24:43;7.10;1.00
15630;DHT22;7914;50.842;0.166;2023-02-28T16:27:29;7.90;99.90
15630;DHT22;7914;50.842;0.166;2023-02-28T16:29:56;7.10;99.90
15630;DHT22;7914;50.842;0.166;2023-02-28T16:32:21;7.00;94.70
15630;DHT22;7914;50.842;0.166;2023-02-28T16:34:47;7.20;99.90
15630;DHT22;7914;50.842;0.166;2023-02-28T16:37:15;7.00;99.90
15630;DHT22;7914;50.842;0.166;2023-02-28T16:39:42;6.90;1.00
15630;DHT22;7914;50.842;0.166;2023-02-28T16:42:23;8.10;1.00
15630;DHT22;7914;50.842;0.166;2023-02-28T16:44:51;7.00;1.00
15630;DHT22;7914;50.842;0.166;2023-02-28T16:47:18;7.00;1.00
15630;DHT22;7914;50.842;0.166;2023-02-28T16:49:44;7.00;1.00
15630;DHT22;7914;50.842;0.166;2023-02-28T16:52:10;7.00;58.20
15630;DHT22;7914;50.842;0.166;2023-02-28T16:54:38;6.90;87.20
15630;DHT22;7914;50.842;0.166;2023-02-28T16:57:05;6.90;1.00
15630;DHT22;7914;50.842;0.166;2023-02-28T16:59:32;8.10;1.00
15630;DHT22;7914;50.842;0.166;2023-02-28T17:01:58;7.00;1.00
15630;DHT22;7914;50.842;0.166;2023-02-28T17:04:28;6.90;99.90
15630;DHT22;7914;50.842;0.166;2023-02-28T17:06:54;8.00;1.00
15630;DHT22;7914;50.842;0.166;2023-02-28T17:09:21;6.80;99.90
15630;DHT22;7914;50.842;0.166;2023-02-28T17:14:15;6.80;1.00
15630;DHT22;7914;50.842;0.166;2023-02-28T17:16:41;6.60;99.90
15630;DHT22;7914;50.842;0.166;2023-02-28T17:19:12;6.50;99.90
15630;DHT22;7914;50.842;0.166;2023-02-28T17:24:04;6.30;1.00
15630;DHT22;7914;50.842;0.166;2023-02-28T17:26:30;6.20;99.90
15630;DHT22;7914;50.842;0.166;2023-02-28T17:28:57;6.20;99.90
15630;DHT22;7914;50.842;0.166;2023-02-28T17:31:26;6.20;1.00
15630;DHT22;7914;50.842;0.166;2023-02-28T17:33:53;6.80;1.00
15630;DHT22;7914;50.842;0.166;2023-02-28T17:36:25;6.10;1.00
15630;DHT22;7914;50.842;0.166;2023-02-28T17:38:52;6.00;99.90
15630;DHT22;7914;50.842;0.166;2023-02-28T17:41:18;6.00;1.00
15630;DHT22;7914;50.842;0.166;2023-02-28T17:43:44;7.10;1.00
15630;DHT22;7914;50.842;0.166;2023-02-28T17:46:19;6.60;1.00
15630;DHT22;7914;50.842;0.166;2023-02-28T17:48:47;5.50;1.00
15630;DHT22;7914;50.842;0.166;2023-02-28T17:51:14;6.20;99.90
15630;DHT22;7914;50.842;0.166;2023-02-28T17:53:39;5.60;99.90
15630;DHT22;7914;50.842;0.166;2023-02-28T17:56:27;5.60;99.90
15630;DHT22;7914;50.842;0.166;2023-02-28T17:58:54;5.00;99.90
15630;DHT22;7914;50.842;0.166;2023-02-28T18:01:20;4.90;99.90
15630;DHT22;7914;50.842;0.166;2023-02-28T18:03:47;4.80;99.90
15630;DHT22;7914;50.842;0.166;2023-02-28T18:06:19;4.30;99.90
15630;DHT22;7914;50.842;0.166;2023-02-28T18:08:46;4.30;99.90
15630;DHT22;7914;50.842;0.166;2023-02-28T18:11:12;4.10;99.90
15630;DHT22;7914;50.842;0.166;2023-02-28T18:13:44;4.10;1.00
15630;DHT22;7914;50.842;0.166;2023-02-28T18:16:10;4.20;1.00
15630;DHT22;7914;50.842;0.166;2023-02-28T18:18:35;5.50;1.00
15630;DHT22;7914;50.842;0.166;2023-02-28T18:21:04;4.10;1.00
15630;DHT22;7914;50.842;0.166;2023-02-28T18:23:31;4.20;1.00
15630;DHT22;7914;50.842;0.166;2023-02-28T18:25:57;4.10;1.00
15630;DHT22;7914;50.842;0.166;2023-02-28T18:28:24;4.10;1.00
15630;DHT22;7914;50.842;0.166;2023-02-28T18:30:49;4.20;1.00
15630;DHT22;7914;50.842;0.166;2023-02-28T18:33:15;6.00;1.00
15630;DHT22;7914;50.842;0.166;2023-02-28T18:35:41;4.20;1.00
15630;DHT22;7914;50.842;0.166;2023-02-28T18:38:17;4.20;1.00
15630;DHT22;7914;50.842;0.166;2023-02-28T18:40:55;4.30;1.00
15630;DHT22;7914;50.842;0.166;2023-02-28T18:43:21;4.20;1.00
15630;DHT22;7914;50.842;0.166;2023-02-28T18:45:47;4.20;1.00
15630;DHT22;7914;50.842;0.166;2023-02-28T18:48:13;4.20;1.00
15630;DHT22;7914;50.842;0.166;2023-02-28T18:50:40;4.80;1.00
15630;DHT22;7914;50.842;0.166;2023-02-28T18:53:07;4.20;1.00
15630;DHT22;7914;50.842;0.166;2023-02-28T18:55:32;4.20;1.00
15630;DHT22;7914;50.842;0.166;2023-02-28T18:57:59;4.10;1.00
15630;DHT22;7914;50.842;0.166;2023-02-28T19:00:25;4.10;1.00